Time;durP1;ratioP1;P1;durP2;ratioP2;P2;SDS_P1;SDS_P2;PMS_P1;PMS_P2;Temp;Humidity;BMP_temperature;BMP_pressure;BME280_temperature;BME280_humidity;BME280_pressure;Samples;Min_cycle;Max_cycle;Signal;HPM_P1;HPM_P2
2022/09/27 00:00:33;;;;;;;8.45;4.20;;;10.50;99.90;;;9.35;100.00;95618.78;5063216;28;20973;-72
2022/09/27 00:03:00;;;;;;;8.20;4.35;;;10.40;99.90;;;9.36;100.00;95615.84;5057897;28;20411;-72
2022/09/27 00:05:27;;;;;;;6.78;4.00;;;10.40;99.90;;;9.46;100.00;95614.94;5057477;28;20459;-72
2022/09/27 00:07:53;;;;;;;7.30;3.70;;;10.40;99.90;;;9.53;100.00;95616.13;5049848;28;20406;-72
2022/09/27 00:10:19;;;;;;;11.10;3.78;;;10.50;99.90;;;9.52;100.00;95606.63;5049780;28;20488;-72
2022/09/27 00:12:47;;;;;;;8.67;4.30;;;10.50;99.90;;;9.49;100.00;95612.47;5055843;28;20757;-72
2022/09/27 00:15:13;;;;;;;6.35;3.45;;;10.50;99.90;;;9.55;100.00;95610.53;5069645;28;20404;-72
2022/09/27 00:17:40;;;;;;;6.90;3.58;;;10.50;99.90;;;9.41;100.00;95605.19;5069624;28;20399;-73
2022/09/27 00:20:08;;;;;;;7.38;4.07;;;10.40;99.90;;;9.32;100.00;95602.41;5052037;28;20413;-73
2022/09/27 00:22:36;;;;;;;5.60;3.50;;;10.30;99.90;;;9.41;100.00;95599.91;5054345;28;20411;-72
2022/09/27 00:25:04;;;;;;;7.17;3.60;;;10.40;99.90;;;9.44;100.00;95594.09;5069310;28;20435;-73
2022/09/27 00:27:31;;;;;;;6.97;3.37;;;10.40;99.90;;;9.34;100.00;95591.59;5069592;28;20481;-73
2022/09/27 00:29:57;;;;;;;6.95;3.35;;;10.30;99.90;;;9.42;100.00;95592.78;5069576;28;20404;-72
2022/09/27 00:32:23;;;;;;;6.53;3.60;;;10.40;99.90;;;9.36;100.00;95594.72;5066113;28;20946;-73
2022/09/27 00:34:48;;;;;;;5.88;3.35;;;10.30;99.90;;;9.38;100.00;95587.31;5049342;28;20487;-73
2022/09/27 00:37:14;;;;;;;6.38;3.67;;;10.30;99.90;;;9.36;100.00;95592.09;5049689;28;20420;-73
2022/09/27 00:39:42;;;;;;;7.15;3.88;;;10.40;99.90;;;9.38;100.00;95589.16;5049650;28;20406;-74
2022/09/27 00:42:10;;;;;;;8.45;3.78;;;10.30;99.90;;;9.41;100.00;95588.56;5052965;28;20433;-73
2022/09/27 00:45:12;;;;;;;6.78;3.90;;;10.40;99.90;;;9.37;100.00;95587.59;5072533;28;20434;-73
2022/09/27 00:47:47;;;;;;;6.85;4.00;;;10.40;99.90;;;9.37;100.00;95588.38;5060906;28;20409;-74
2022/09/27 00:50:26;;;;;;;8.57;3.88;;;10.40;99.90;;;9.40;100.00;95589.66;5053180;28;20405;-73
2022/09/27 00:53:08;;;;;;;8.02;3.60;;;10.40;99.90;;;9.44;100.00;95580.88;5059266;28;20461;-73
2022/09/27 00:55:41;;;;;;;5.68;3.85;;;10.40;99.90;;;9.50;100.00;95585.00;5072879;28;20907;-74
2022/09/27 00:58:08;;;;;;;12.38;3.40;;;10.40;99.90;;;9.46;100.00;95570.81;5072811;28;20960;-74
2022/09/27 01:00:38;;;;;;;5.40;3.40;;;10.50;99.90;;;9.45;100.00;95571.09;5070050;28;20495;-73
2022/09/27 01:03:08;;;;;;;6.30;3.72;;;10.50;99.90;;;9.54;100.00;95574.66;5059959;28;20418;-74
2022/09/27 01:05:35;;;;;;;5.60;3.30;;;10.50;99.90;;;9.50;100.00;95577.06;5072392;28;20419;-73
2022/09/27 01:08:01;;;;;;;4.95;3.13;;;10.50;99.90;;;9.55;100.00;95576.19;5072696;28;20892;-73
2022/09/27 01:10:35;;;;;;;5.50;3.20;;;10.50;99.90;;;9.52;100.00;95580.22;5072542;28;20404;-74
2022/09/27 01:13:15;;;;;;;6.00;3.15;;;10.50;99.90;;;9.49;100.00;95583.44;5064506;28;20470;-74
2022/09/27 01:15:51;;;;;;;6.97;3.50;;;10.50;99.90;;;9.49;100.00;95588.72;5055454;28;20406;-73
2022/09/27 01:18:31;;;;;;;10.13;2.92;;;10.50;99.90;;;9.60;100.00;95578.78;5072102;28;20422;-74
2022/09/27 01:21:43;;;;;;;5.55;3.28;;;10.50;99.90;;;9.46;100.00;95575.31;5071905;28;20408;-73
2022/09/27 01:24:53;;;;;;;5.60;3.35;;;10.40;99.90;;;9.47;100.00;95582.94;5055473;28;20448;-73
2022/09/27 01:28:02;;;;;;;4.55;3.30;;;10.40;99.90;;;9.48;100.00;95587.13;5052625;28;20421;-74
2022/09/27 01:30:38;;;;;;;4.50;3.10;;;10.50;99.90;;;9.51;100.00;95583.94;5053550;28;20418;-73
2022/09/27 01:33:23;;;;;;;5.00;3.35;;;10.50;99.90;;;9.58;100.00;95576.44;5068350;28;20939;-73
2022/09/27 01:36:13;;;;;;;4.93;3.17;;;10.50;99.90;;;9.63;100.00;95580.84;5072139;28;20415;-72
2022/09/27 01:38:53;;;;;;;5.03;3.10;;;10.60;99.90;;;9.62;100.00;95572.13;5072146;28;20427;-72
2022/09/27 01:41:32;;;;;;;5.22;3.10;;;10.60;99.90;;;9.61;100.00;95564.50;5070071;28;20403;-73
2022/09/27 01:44:03;;;;;;;5.30;3.08;;;10.60;99.90;;;9.57;100.00;95574.84;5050511;28;20417;-73
2022/09/27 01:46:36;;;;;;;10.90;3.33;;;10.60;99.90;;;9.62;100.00;95576.66;5063216;28;20803;-73
2022/09/27 01:49:10;;;;;;;4.97;3.08;;;10.60;99.90;;;9.59;100.00;95572.72;5072025;28;20408;-73
2022/09/27 01:51:43;;;;;;;4.57;2.83;;;10.60;99.90;;;9.61;100.00;95578.50;5068051;28;20492;-73
2022/09/27 01:54:16;;;;;;;6.20;3.30;;;10.60;99.90;;;9.62;100.00;95574.75;5051028;28;20401;-74
2022/09/27 01:56:47;;;;;;;5.72;2.72;;;10.60;99.90;;;9.63;100.00;95578.97;5050767;28;20466;-73
2022/09/27 01:59:19;;;;;;;6.80;3.00;;;10.60;99.90;;;9.60;100.00;95579.56;5051931;28;20420;-73
2022/09/27 02:01:50;;;;;;;4.38;2.55;;;10.60;99.90;;;9.52;100.00;95576.78;5055705;28;20410;-74
2022/09/27 02:04:21;;;;;;;8.83;2.87;;;10.50;99.90;;;9.56;100.00;95581.19;5070983;28;20482;-73
2022/09/27 02:06:52;;;;;;;2.97;2.42;;;10.50;99.90;;;9.51;100.00;95589.22;5071559;28;20521;-72
2022/09/27 02:09:24;;;;;;;5.63;2.60;;;10.50;99.90;;;9.50;100.00;95587.66;5070827;28;20407;-73
2022/09/27 02:11:56;;;;;;;4.65;2.85;;;10.50;99.90;;;9.56;100.00;95591.78;5066254;28;20819;-73
2022/09/27 02:14:30;;;;;;;7.90;3.20;;;10.60;99.90;;;9.56;100.00;95599.69;5059758;28;20404;-73
2022/09/27 02:17:06;;;;;;;4.68;2.70;;;10.60;99.90;;;9.51;100.00;95593.72;5071345;28;20400;-72
2022/09/27 02:19:42;;;;;;;7.53;3.03;;;10.50;99.90;;;9.53;100.00;95602.13;5070840;28;20430;-73
2022/09/27 02:22:18;;;;;;;5.47;2.80;;;10.50;99.90;;;9.50;100.00;95614.06;5063639;28;20972;-73
2022/09/27 02:24:53;;;;;;;9.47;3.17;;;10.50;99.90;;;9.57;100.00;95616.34;5051018;28;20504;-72
2022/09/27 02:27:27;;;;;;;8.13;3.10;;;10.50;99.90;;;9.46;100.00;95612.28;5051652;28;20409;-73
2022/09/27 02:30:00;;;;;;;6.93;2.80;;;10.40;99.90;;;9.20;100.00;95617.91;5070852;28;20412;-73
2022/09/27 02:32:28;;;;;;;5.18;2.50;;;10.10;99.90;;;9.17;100.00;95621.13;5061000;28;20475;-73
2022/09/27 02:34:56;;;;;;;14.88;3.00;;;10.20;99.90;;;9.21;100.00;95623.97;5050951;28;20915;-73
2022/09/27 02:37:22;;;;;;;3.80;2.08;;;10.20;99.90;;;9.16;100.00;95619.56;5051187;28;20488;-72
2022/09/27 02:39:48;;;;;;;5.10;2.35;;;10.10;99.90;;;9.02;100.00;95620.56;5051255;28;20448;-73
2022/09/27 02:42:14;;;;;;;5.25;2.55;;;10.00;99.90;;;9.00;100.00;95615.56;5052347;28;20433;-72
2022/09/27 02:44:41;;;;;;;4.78;2.42;;;10.00;99.90;;;9.06;100.00;95606.50;5050658;28;20413;-72
2022/09/27 02:47:27;;;;;;;5.20;2.45;;;10.10;99.90;;;9.06;100.00;95609.13;5051063;28;20417;-72
2022/09/27 02:50:13;;;;;;;9.40;2.30;;;10.00;99.90;;;8.99;100.00;95613.97;5066161;28;20411;-72
2022/09/27 02:52:49;;;;;;;8.38;2.42;;;10.00;99.90;;;8.93;100.00;95621.19;5059104;28;20398;-73
2022/09/27 02:55:23;;;;;;;6.30;2.60;;;10.00;99.90;;;8.84;100.00;95632.66;5050999;28;20410;-73
2022/09/27 02:58:03;;;;;;;7.67;2.57;;;9.90;99.90;;;8.76;100.00;95643.81;5069603;28;20464;-73
2022/09/27 03:00:36;;;;;;;7.53;2.70;;;9.80;99.90;;;8.69;100.00;95638.88;5070468;28;20407;-72
2022/09/27 03:03:08;;;;;;;11.23;2.88;;;9.70;99.90;;;8.59;100.00;95636.34;5055552;28;20522;-73
2022/09/27 03:05:42;;;;;;;12.35;3.13;;;9.70;99.90;;;8.59;100.00;95628.44;5066299;28;20404;-72
2022/09/27 03:08:11;;;;;;;8.45;2.70;;;9.60;99.90;;;8.58;100.00;95632.13;5057142;28;20403;-73
2022/09/27 03:10:37;;;;;;;9.97;2.93;;;9.60;99.90;;;8.50;100.00;95633.53;5069029;28;20520;-72
2022/09/27 03:13:04;;;;;;;10.80;3.10;;;9.60;99.90;;;8.57;100.00;95635.84;5055602;28;20496;-72
2022/09/27 03:15:30;;;;;;;8.77;2.90;;;9.60;99.90;;;8.52;100.00;95639.31;5050475;28;20470;-71
2022/09/27 03:17:56;;;;;;;8.60;3.00;;;9.60;99.90;;;8.51;100.00;95644.88;5050582;28;20410;-72
2022/09/27 03:20:22;;;;;;;12.38;3.28;;;9.60;99.90;;;8.50;100.00;95641.44;5070684;22;20518;-71
2022/09/27 03:22:49;;;;;;;7.88;2.90;;;9.60;99.90;;;8.46;100.00;95652.84;5088833;28;20410;-71
2022/09/27 03:25:15;;;;;;;8.80;3.50;;;9.50;99.90;;;8.52;100.00;95655.16;5088891;28;20439;-72
2022/09/27 03:27:42;;;;;;;11.70;3.50;;;9.50;99.90;;;8.45;100.00;95659.97;5090584;28;20577;-72
2022/09/27 03:30:11;;;;;;;11.55;3.50;;;9.50;99.90;;;8.42;100.00;95668.44;5090321;28;20919;-72
2022/09/27 03:32:42;;;;;;;9.23;3.40;;;9.40;99.90;;;8.40;100.00;95673.22;5088827;28;20428;-72
2022/09/27 03:35:08;;;;;;;8.50;3.63;;;9.40;99.90;;;8.42;100.00;95671.06;5090141;28;20433;-72
2022/09/27 03:37:34;;;;;;;14.18;3.90;;;9.50;99.90;;;8.45;100.00;95670.50;5088728;28;20881;-72
2022/09/27 03:40:02;;;;;;;8.00;3.70;;;9.50;99.90;;;8.52;100.00;95670.19;5070293;28;20628;-72
2022/09/27 03:42:28;;;;;;;10.05;3.92;;;9.50;99.90;;;8.50;100.00;95677.56;5078659;28;20956;-72
2022/09/27 03:44:54;;;;;;;15.38;3.83;;;9.50;99.90;;;8.48;100.00;95672.59;5089726;28;20483;-72
2022/09/27 03:47:21;;;;;;;11.15;3.88;;;9.50;99.90;;;8.48;100.00;95669.19;5079355;28;20901;-72
2022/09/27 03:49:47;;;;;;;12.80;4.78;;;9.50;99.90;;;8.57;100.00;95672.00;5079913;28;20935;-71
2022/09/27 03:52:14;;;;;;;13.23;4.53;;;9.60;99.90;;;8.57;100.00;95670.13;5076637;28;20490;-71
2022/09/27 03:54:40;;;;;;;14.90;4.70;;;9.60;99.90;;;8.51;100.00;95671.25;5070301;28;20925;-72
2022/09/27 03:57:07;;;;;;;12.57;4.72;;;9.50;99.90;;;8.48;100.00;95666.53;5079473;28;20503;-72
2022/09/27 03:59:33;;;;;;;14.52;5.15;;;9.50;99.90;;;8.54;100.00;95663.56;5078301;28;20410;-70
2022/09/27 04:01:59;;;;;;;18.60;5.10;;;9.60;99.90;;;8.54;100.00;95665.41;5078263;28;20454;-71
2022/09/27 04:04:25;;;;;;;18.85;5.35;;;9.60;99.90;;;8.60;100.00;95663.50;5078169;28;20461;-70
2022/09/27 04:06:51;;;;;;;20.00;5.60;;;9.60;99.90;;;8.61;100.00;95667.72;5078762;28;20915;-71
2022/09/27 04:09:17;;;;;;;16.27;5.60;;;9.60;99.90;;;8.57;100.00;95672.00;5077823;28;20901;-72
2022/09/27 04:11:43;;;;;;;20.13;6.20;;;9.60;99.90;;;8.56;100.00;95673.06;5079838;28;20407;-72
2022/09/27 04:14:11;;;;;;;16.17;6.10;;;9.60;99.90;;;8.51;100.00;95672.03;5077365;28;20398;-71
2022/09/27 04:16:39;;;;;;;18.30;6.25;;;9.50;99.90;;;8.58;100.00;95678.81;5072074;28;20542;-72
2022/09/27 04:19:06;;;;;;;24.52;6.85;;;9.60;99.90;;;8.54;100.00;95675.97;5073822;28;20407;-72
2022/09/27 04:21:32;;;;;;;22.63;7.05;;;9.60;99.90;;;8.61;100.00;95675.63;5074699;28;20407;-71
2022/09/27 04:23:58;;;;;;;21.17;6.57;;;9.60;99.90;;;8.61;100.00;95675.63;5080026;28;20474;-73
2022/09/27 04:26:24;;;;;;;19.30;6.93;;;9.60;99.90;;;8.59;100.00;95675.91;5084354;28;20411;-73
2022/09/27 04:28:51;;;;;;;20.42;6.40;;;9.60;99.90;;;8.60;100.00;95679.34;5073300;28;20414;-73
2022/09/27 04:31:19;;;;;;;25.15;6.70;;;9.60;99.90;;;8.61;100.00;95680.91;5073329;28;20411;-73
2022/09/27 04:33:45;;;;;;;26.08;7.32;;;9.60;99.90;;;8.57;100.00;95678.03;5074287;28;20404;-72
2022/09/27 04:36:25;;;;;;;24.27;7.03;;;9.60;99.90;;;8.50;100.00;95686.28;5083741;28;20459;-73
2022/09/27 04:38:51;;;;;;;27.00;8.30;;;9.50;99.90;;;8.49;100.00;95676.78;5092146;28;20496;-73
2022/09/27 04:41:17;;;;;;;21.08;6.97;;;9.50;99.90;;;8.47;100.00;95673.66;5093393;28;20397;-72
2022/09/27 04:43:43;;;;;;;24.80;7.60;;;9.50;99.90;;;8.50;100.00;95682.84;5083987;28;20507;-72
2022/09/27 04:46:09;;;;;;;24.35;7.38;;;9.50;99.90;;;8.51;100.00;95689.69;5083377;28;20399;-72
2022/09/27 04:48:36;;;;;;;28.38;7.75;;;9.60;99.90;;;8.56;100.00;95692.31;5081910;28;20398;-72
2022/09/27 04:51:03;;;;;;;24.25;7.60;;;9.60;99.90;;;8.59;100.00;95693.59;5082978;28;20858;-72
2022/09/27 04:53:29;;;;;;;23.75;7.57;;;9.60;99.90;;;8.62;100.00;95699.09;5079070;28;20504;-72
2022/09/27 04:55:56;;;;;;;23.13;7.68;;;9.60;99.90;;;8.75;100.00;95705.56;5087641;28;20390;-72
2022/09/27 04:58:22;;;;;;;20.02;6.90;;;9.70;99.90;;;8.72;100.00;95704.25;5093376;28;20408;-72
2022/09/27 05:00:54;;;;;;;24.30;7.15;;;9.70;99.90;;;8.77;100.00;95701.56;5093335;28;20405;-73
2022/09/27 05:03:20;;;;;;;28.25;7.68;;;9.70;99.90;;;8.73;100.00;95705.03;5092781;28;20414;-74
2022/09/27 05:05:47;;;;;;;24.88;7.78;;;9.70;99.90;;;8.70;100.00;95710.88;5093232;28;20410;-75
2022/09/27 05:08:13;;;;;;;19.48;7.05;;;9.70;99.90;;;8.67;100.00;95719.34;5093219;28;20910;-74
2022/09/27 05:10:39;;;;;;;20.00;6.75;;;9.70;99.90;;;8.65;100.00;95724.91;5093210;28;20398;-74
2022/09/27 05:13:06;;;;;;;25.65;6.95;;;9.60;99.90;;;8.68;100.00;95728.84;5092582;28;20398;-76
2022/09/27 05:15:33;;;;;;;17.60;6.00;;;9.70;99.90;;;8.62;100.00;95732.59;5093057;28;20401;-74
2022/09/27 05:17:59;;;;;;;19.42;5.95;;;9.60;99.90;;;8.69;100.00;95731.22;5080193;28;20403;-74
2022/09/27 05:20:25;;;;;;;25.38;6.93;;;9.60;99.90;;;8.63;100.00;95732.31;5071903;28;20403;-74
2022/09/27 05:22:52;;;;;;;25.38;6.60;;;9.60;99.90;;;8.55;100.00;95738.19;5071797;28;20972;-74
2022/09/27 05:25:18;;;;;;;19.05;6.07;;;9.60;99.90;;;8.55;100.00;95743.47;5072600;28;20420;-71
2022/09/27 05:27:44;;;;;;;19.00;6.43;;;9.60;99.90;;;8.53;100.00;95738.47;5071570;28;20803;-71
2022/09/27 05:30:11;;;;;;;14.67;6.10;;;9.60;99.90;;;8.54;100.00;95747.16;5072564;28;20487;-71
2022/09/27 05:32:42;;;;;;;21.25;6.75;;;9.50;99.90;;;8.53;100.00;95749.03;5072413;28;20473;-71
2022/09/27 05:35:09;;;;;;;17.77;6.18;;;9.50;99.90;;;8.48;100.00;95764.09;5072345;28;20414;-71
2022/09/27 05:37:35;;;;;;;19.42;6.10;;;9.50;99.90;;;8.48;100.00;95764.91;5072580;28;20407;-71
2022/09/27 05:40:03;;;;;;;17.60;5.75;;;9.50;99.90;;;8.40;100.00;95770.75;5072424;28;20465;-71
2022/09/27 05:42:29;;;;;;;14.80;5.40;;;9.40;99.90;;;8.46;100.00;95777.56;5072132;28;20414;-71
2022/09/27 05:44:55;;;;;;;18.10;6.05;;;9.40;99.90;;;8.48;100.00;95779.94;5071882;28;20407;-71
2022/09/27 05:47:21;;;;;;;18.02;5.93;;;9.50;99.90;;;8.50;100.00;95783.84;5072423;28;20923;-71
2022/09/27 05:49:47;;;;;;;13.75;5.32;;;9.50;99.90;;;8.47;100.00;95779.16;5071507;28;20864;-71
2022/09/27 05:52:13;;;;;;;12.15;5.25;;;9.50;99.90;;;8.46;100.00;95784.69;5082836;28;20888;-69
2022/09/27 05:54:38;;;;;;;10.52;4.35;;;9.50;99.90;;;8.63;100.00;95789.56;5083220;28;20411;-71
2022/09/27 05:57:06;;;;;;;13.85;4.65;;;9.60;99.90;;;8.66;100.00;95789.00;5070001;28;20990;-71
2022/09/27 05:59:32;;;;;;;19.80;5.50;;;9.60;99.90;;;8.61;100.00;95789.03;5072289;28;20789;-72
2022/09/27 06:01:59;;;;;;;17.23;5.63;;;9.60;99.90;;;8.53;100.00;95796.50;5073885;28;20406;-71
2022/09/27 06:04:25;;;;;;;15.80;5.57;;;9.50;99.90;;;8.47;100.00;95805.50;5079420;28;20919;-73
2022/09/27 06:06:50;;;;;;;12.90;5.50;;;9.50;99.90;;;8.41;100.00;95801.34;5082001;28;20427;-72
2022/09/27 06:09:17;;;;;;;12.25;5.35;;;9.50;99.90;;;8.45;100.00;95812.13;5081306;28;20448;-73
2022/09/27 06:11:44;;;;;;;19.43;6.40;;;9.50;99.90;;;8.47;100.00;95808.16;5078797;28;20735;-72
2022/09/27 06:14:12;;;;;;;14.80;5.22;;;9.50;99.90;;;8.51;100.00;95819.72;5078168;28;20407;-71
2022/09/27 06:16:38;;;;;;;18.00;5.60;;;9.50;99.90;;;8.54;100.00;95823.66;5084166;28;20802;-72
2022/09/27 06:19:04;;;;;;;13.52;5.57;;;9.60;99.90;;;8.57;100.00;95823.09;5085754;28;20455;-70
2022/09/27 06:21:30;;;;;;;11.50;4.65;;;9.60;99.90;;;8.69;100.00;95828.00;5091664;28;20409;-70
2022/09/27 06:23:57;;;;;;;13.07;4.77;;;9.60;99.90;;;8.65;100.00;95827.75;5076142;28;20844;-71
2022/09/27 06:26:25;;;;;;;14.57;4.70;;;9.60;99.90;;;8.69;100.00;95830.66;5079549;28;20481;-71
2022/09/27 06:28:51;;;;;;;12.52;4.40;;;9.60;99.90;;;8.68;100.00;95824.59;5089376;28;20402;-71
2022/09/27 06:31:20;;;;;;;8.95;3.92;;;9.70;99.90;;;8.76;100.00;95825.84;5078282;28;20475;-70
2022/09/27 06:33:46;;;;;;;8.63;3.93;;;9.70;99.90;;;8.83;100.00;95826.31;5078008;28;20507;-71
2022/09/27 06:36:12;;;;;;;7.95;3.78;;;9.80;99.90;;;8.81;100.00;95826.56;5085690;28;20469;-70
2022/09/27 06:38:38;;;;;;;8.93;3.97;;;9.80;99.90;;;8.85;100.00;95837.38;5078750;28;20416;-71
2022/09/27 06:41:12;;;;;;;6.10;3.40;;;9.80;99.90;;;8.77;100.00;95841.41;5082236;28;20422;-72
2022/09/27 06:43:38;;;;;;;8.10;3.50;;;9.70;99.90;;;8.72;100.00;95844.06;5080898;28;20416;-71
2022/09/27 06:46:04;;;;;;;14.00;4.03;;;9.70;99.90;;;8.79;100.00;95844.56;5080349;28;20412;-70
2022/09/27 06:48:34;;;;;;;8.77;3.75;;;9.80;99.90;;;8.79;100.00;95851.69;5081936;28;20411;-70
2022/09/27 06:51:00;;;;;;;6.70;3.15;;;9.80;99.90;;;8.70;100.00;95846.22;5081140;28;20485;-70
2022/09/27 06:53:28;;;;;;;9.00;2.90;;;9.70;99.90;;;8.63;100.00;95853.66;5087596;28;20410;-70
2022/09/27 06:55:58;;;;;;;8.45;3.13;;;9.60;99.90;;;8.67;100.00;95857.31;5082225;28;20413;-73
2022/09/27 07:01:09;;;;;;;9.18;3.40;;;9.60;99.90;;;8.71;100.00;95862.81;5078167;28;20460;-70
2022/09/27 07:03:40;;;;;;;5.85;2.95;;;9.70;99.90;;;8.67;100.00;95856.50;5078090;28;20560;-71
2022/09/27 07:06:17;;;;;;;7.13;2.57;;;9.60;99.90;;;8.58;100.00;95861.59;5076841;28;20408;-71
2022/09/27 07:08:43;;;;;;;5.25;2.50;;;9.50;99.90;;;8.71;100.00;95863.63;5074618;28;20501;-69
2022/09/27 07:11:09;;;;;;;6.68;2.55;;;9.70;99.90;;;8.75;100.00;95861.19;5075262;28;20400;-70
2022/09/27 07:13:39;;;;;;;5.75;2.22;;;9.70;99.90;;;8.82;100.00;95866.94;5074520;28;20420;-70
2022/09/27 07:16:06;;;;;;;3.70;2.20;;;9.70;99.90;;;8.91;100.00;95870.56;5071825;28;20502;-71
2022/09/27 07:18:32;;;;;;;3.67;2.20;;;9.80;99.90;;;8.91;100.00;95863.44;5078994;28;20931;-69
2022/09/27 07:21:00;;;;;;;4.88;2.20;;;9.80;99.90;;;8.96;100.00;95873.16;5075655;28;20950;-69
2022/09/27 07:23:27;;;;;;;5.07;2.07;;;9.90;99.90;;;9.00;100.00;95876.03;5083458;28;20544;-68
2022/09/27 07:25:55;;;;;;;3.10;1.90;;;9.90;99.90;;;9.02;100.00;95887.88;5078444;28;20821;-71
2022/09/27 07:28:21;;;;;;;4.78;2.00;;;9.90;99.90;;;8.93;100.00;95886.91;5078829;28;20412;-70
2022/09/27 07:30:48;;;;;;;3.20;1.70;;;9.90;99.90;;;8.93;100.00;95885.06;5073607;28;20512;-71
2022/09/27 07:33:14;;;;;;;3.97;1.52;;;9.90;99.90;;;8.79;100.00;95886.78;5077523;28;20415;-71
2022/09/27 07:35:42;;;;;;;3.93;1.83;;;9.70;99.90;;;8.77;100.00;95901.28;5079922;28;20537;-71
2022/09/27 07:38:14;;;;;;;4.53;1.90;;;9.70;99.90;;;8.75;100.00;95898.13;5073133;28;20465;-70
2022/09/27 07:40:40;;;;;;;2.25;2.00;;;9.70;99.90;;;8.66;100.00;95897.94;5070219;28;20411;-70
2022/09/27 07:43:08;;;;;;;4.68;2.20;;;9.60;99.90;;;8.74;100.00;95913.16;5081288;28;20824;-70
2022/09/27 07:45:35;;;;;;;2.63;1.92;;;9.70;99.90;;;8.71;100.00;95912.94;5077311;28;20419;-69
2022/09/27 07:48:04;;;;;;;3.78;2.13;;;9.60;99.90;;;8.80;100.00;95916.56;5076295;28;20403;-70
2022/09/27 07:50:30;;;;;;;4.13;2.30;;;9.70;99.90;;;8.84;100.00;95914.94;5073108;28;20406;-72
2022/09/27 07:52:57;;;;;;;4.95;2.28;;;9.80;99.90;;;8.82;100.00;95902.03;5081915;28;20420;-73
2022/09/27 07:55:24;;;;;;;3.53;2.33;;;9.80;99.90;;;8.88;100.00;95911.47;5073811;28;20409;-71
2022/09/27 07:57:50;;;;;;;4.13;2.33;;;9.80;99.90;;;9.00;100.00;95910.34;5073655;28;20404;-69
2022/09/27 08:00:20;;;;;;;5.03;2.50;;;9.90;99.90;;;9.04;100.00;95920.06;5075109;28;20407;-71
2022/09/27 08:02:46;;;;;;;4.72;2.60;;;10.00;99.90;;;9.21;100.00;95912.53;5076675;28;20417;-71
2022/09/27 08:05:13;;;;;;;4.80;2.63;;;10.10;99.90;;;9.27;100.00;95924.63;5078375;28;20481;-71
2022/09/27 08:07:39;;;;;;;5.70;2.50;;;10.20;99.90;;;9.35;100.00;95935.63;5082461;28;20467;-69
2022/09/27 08:10:08;;;;;;;4.90;2.13;;;10.20;99.90;;;9.05;100.00;95939.31;5074398;28;20426;-71
2022/09/27 08:12:36;;;;;;;5.15;2.97;;;10.00;99.90;;;9.16;100.00;95943.47;5075187;28;20919;-71
2022/09/27 08:15:02;;;;;;;2.47;2.10;;;10.00;99.90;;;9.09;100.00;95951.72;5078331;28;20395;-71
2022/09/27 08:17:29;;;;;;;7.78;2.40;;;10.00;99.90;;;9.08;100.00;95949.34;5079682;28;20754;-70
2022/09/27 08:19:55;;;;;;;6.78;2.60;;;10.00;99.90;;;9.18;100.00;95949.25;5078500;28;20907;-70
2022/09/27 08:22:21;;;;;;;6.00;2.40;;;10.10;99.90;;;9.16;100.00;95946.91;5077871;28;20407;-70
2022/09/27 08:24:48;;;;;;;4.47;2.88;;;10.10;99.90;;;9.32;100.00;95947.56;5077855;28;20739;-71
2022/09/27 08:27:14;;;;;;;7.80;2.80;;;10.20;99.90;;;9.56;100.00;95952.88;5079656;28;20405;-72
2022/09/27 08:29:41;;;;;;;3.63;1.80;;;10.40;99.90;;;9.52;100.00;95944.72;5079040;28;20881;-74
2022/09/27 08:32:08;;;;;;;2.58;1.63;;;10.40;99.90;;;9.75;100.00;95947.66;5074649;28;20439;-74
2022/09/27 08:34:34;;;;;;;4.93;1.90;;;10.60;99.90;;;9.89;100.00;95957.28;5079169;28;20399;-71
2022/09/27 08:37:00;;;;;;;2.90;1.63;;;10.70;99.90;;;9.88;100.00;95965.50;5078354;28;20811;-71
2022/09/27 08:39:26;;;;;;;2.78;1.63;;;10.70;99.90;;;9.96;100.00;95965.66;5078101;28;20910;-71
2022/09/27 08:42:03;;;;;;;2.35;1.60;;;10.80;99.90;;;10.00;100.00;95979.09;5079647;28;20394;-70
2022/09/27 08:44:41;;;;;;;5.38;2.05;;;10.90;99.90;;;9.72;100.00;95970.16;5077036;28;20804;-71
2022/09/27 08:47:15;;;;;;;3.97;2.10;;;10.70;99.90;;;9.76;100.00;95973.81;5080235;28;20916;-70
2022/09/27 08:49:48;;;;;;;9.00;2.10;;;10.60;99.90;;;9.50;100.00;95980.41;5075110;28;20414;-70
2022/09/27 08:52:21;;;;;;;4.30;2.35;;;10.40;99.90;;;9.52;100.00;95975.63;5077253;28;20403;-70
2022/09/27 08:54:49;;;;;;;4.75;2.05;;;10.40;99.90;;;9.32;100.00;95976.59;5076164;28;20812;-71
2022/09/27 08:57:16;;;;;;;5.45;2.20;;;10.20;99.90;;;9.30;100.00;95984.00;5074507;28;20443;-70
2022/09/27 08:59:48;;;;;;;3.58;1.73;;;10.20;99.90;;;9.21;100.00;95988.31;5079313;28;20926;-70
2022/09/27 09:02:19;;;;;;;5.70;2.00;;;10.10;99.90;;;9.31;100.00;95983.75;5075919;28;20446;-73
2022/09/27 09:04:49;;;;;;;3.75;1.98;;;10.20;99.90;;;9.23;100.00;95988.81;5078678;28;20408;-71
2022/09/27 09:07:36;;;;;;;3.63;1.90;;;10.10;99.90;;;9.26;100.00;95980.34;5074990;28;20402;-70
2022/09/27 09:12:45;;;;;;;2.67;2.00;;;10.20;99.90;;;9.32;100.00;95985.28;5076003;28;20429;-71
2022/09/27 09:13:14;;;;;;;3.45;2.00;;;10.20;99.90;;;9.47;100.00;95978.34;5083322;28;20449;-71
2022/09/27 09:15:55;;;;;;;5.70;1.90;;;10.40;99.90;;;9.59;100.00;95987.44;5073209;28;20903;-71
2022/09/27 09:18:38;;;;;;;3.75;1.70;;;10.40;99.90;;;9.69;100.00;95976.00;5084060;28;20406;-71
2022/09/27 09:21:19;;;;;;;7.72;2.08;;;10.60;99.90;;;9.89;100.00;95969.72;5100185;22;20482;-72
2022/09/27 09:24:29;;;;;;;3.05;1.80;;;10.70;99.90;;;9.96;100.00;95970.94;5077822;28;20506;-72
2022/09/27 09:27:01;;;;;;;3.40;1.90;;;10.80;99.90;;;9.96;100.00;95970.16;5074062;28;20406;-71
2022/09/27 09:29:54;;;;;;;2.03;1.70;;;10.90;99.90;;;9.96;100.00;95970.94;5086844;28;20398;-72
2022/09/27 09:32:33;;;;;;;3.50;2.00;;;10.80;99.90;;;9.71;100.00;95974.63;5081002;28;20410;-73
2022/09/27 09:35:05;;;;;;;4.80;1.75;;;10.60;99.90;;;9.58;100.00;95983.22;5079780;28;20439;-73
2022/09/27 09:37:37;;;;;;;3.40;1.95;;;10.50;99.90;;;9.59;100.00;95981.38;5083828;28;20486;-73
2022/09/27 09:40:16;;;;;;;3.78;2.15;;;10.50;99.90;;;9.53;100.00;95978.00;5082790;28;20408;-73
2022/09/27 09:42:50;;;;;;;7.07;2.42;;;10.50;99.90;;;9.69;100.00;95981.28;5072767;28;20402;-73
2022/09/27 09:45:21;;;;;;;5.88;2.47;;;10.60;99.90;;;9.70;100.00;95974.91;5082061;28;20417;-72
2022/09/27 09:47:54;;;;;;;5.68;2.20;;;10.50;99.90;;;10.02;100.00;95971.69;5080387;28;20490;-74
2022/09/27 09:50:26;;;;;;;6.32;2.30;;;10.90;99.90;;;10.12;100.00;95976.06;5064207;28;20403;-75
2022/09/27 09:52:58;;;;;;;4.07;2.08;;;11.00;99.90;;;10.32;100.00;95965.28;5081833;28;20425;-73
2022/09/27 09:55:30;;;;;;;4.85;2.45;;;11.10;99.90;;;10.64;100.00;95962.75;5078169;28;20408;-75
2022/09/27 09:58:09;;;;;;;5.07;2.50;;;11.40;99.90;;;10.87;100.00;95953.16;5084509;28;20707;-73
2022/09/27 10:00:39;;;;;;;5.75;2.40;;;11.80;99.90;;;11.05;100.00;95951.56;5063552;28;20548;-73
2022/09/27 10:03:05;;;;;;;8.80;2.58;;;11.90;99.90;;;11.14;100.00;95955.09;5080467;28;20493;-74
2022/09/27 10:05:33;;;;;;;6.57;2.10;;;11.90;99.90;;;11.17;100.00;95951.91;5080082;28;20887;-70
2022/09/27 10:08:03;;;;;;;5.18;2.00;;;12.00;99.90;;;11.06;100.00;95938.03;5080477;28;20419;-70
2022/09/27 10:10:30;;;;;;;8.75;2.50;;;11.90;99.90;;;11.10;100.00;95941.69;5081342;28;20527;-71
2022/09/27 10:12:56;;;;;;;5.47;2.17;;;11.90;99.90;;;11.40;100.00;95939.59;5080686;28;20414;-69
2022/09/27 10:15:27;;;;;;;5.40;2.13;;;12.10;99.90;;;11.77;100.00;95949.31;5079874;28;20404;-71
2022/09/27 10:17:57;;;;;;;5.05;1.60;;;12.40;99.90;;;11.67;100.00;95944.94;5080188;28;20461;-71
2022/09/27 10:20:35;;;;;;;4.55;2.00;;;12.40;99.90;;;11.80;100.00;95940.78;5082145;28;20444;-71
2022/09/27 10:23:12;;;;;;;4.47;1.70;;;12.50;99.90;;;11.20;100.00;95960.03;5081316;28;20400;-71
2022/09/27 10:25:51;;;;;;;4.70;1.88;;;11.90;99.90;;;11.00;100.00;95948.97;5080030;28;20432;-70
2022/09/27 10:28:33;;;;;;;5.50;1.80;;;11.90;99.90;;;10.82;100.00;95954.03;5081584;28;20417;-71
2022/09/27 10:31:03;;;;;;;2.83;1.88;;;11.60;99.90;;;10.85;100.00;95956.09;5082166;28;20402;-71
2022/09/27 10:33:31;;;;;;;3.75;1.52;;;11.60;99.90;;;10.52;100.00;95956.31;5072558;28;20976;-72
2022/09/27 10:36:00;;;;;;;3.03;1.80;;;11.40;99.90;;;10.45;100.00;95957.41;5082498;28;20430;-76